sensor_id;sensor_type;location;lat;lon;timestamp;pressure;altitude;pressure_sealevel;temperature;humidity
59513;BME280;45330;51.634;5.562;2022-08-21T00:02:03;101627.94;;;14.20;100.00
59513;BME280;45330;51.634;5.562;2022-08-21T00:04:29;101652.28;;;14.30;100.00
59513;BME280;45330;51.634;5.562;2022-08-21T00:06:55;101656.66;;;14.29;100.00
59513;BME280;45330;51.634;5.562;2022-08-21T00:09:20;101623.69;;;14.08;100.00
59513;BME280;45330;51.634;5.562;2022-08-21T00:11:46;101632.38;;;14.10;100.00
59513;BME280;45330;51.634;5.562;2022-08-21T00:14:13;101639.38;;;14.08;100.00
59513;BME280;45330;51.634;5.562;2022-08-21T00:16:39;101647.22;;;14.10;100.00
59513;BME280;45330;51.634;5.562;2022-08-21T00:19:05;101648.03;;;14.13;100.00
59513;BME280;45330;51.634;5.562;2022-08-21T00:21:32;101622.00;;;13.96;100.00
59513;BME280;45330;51.634;5.562;2022-08-21T00:23:58;101642.84;;;14.10;100.00
59513;BME280;45330;51.634;5.562;2022-08-21T00:26:23;101618.53;;;13.96;100.00
59513;BME280;45330;51.634;5.562;2022-08-21T00:28:48;101643.81;;;13.98;100.00
59513;BME280;45330;51.634;5.562;2022-08-21T00:31:14;101639.41;;;14.02;100.00
59513;BME280;45330;51.634;5.562;2022-08-21T00:33:40;101618.59;;;13.86;100.00
59513;BME280;45330;51.634;5.562;2022-08-21T00:36:06;101641.22;;;13.97;100.00
59513;BME280;45330;51.634;5.562;2022-08-21T00:38:32;101616.91;;;13.78;100.00
59513;BME280;45330;51.634;5.562;2022-08-21T00:41:00;101644.75;;;13.89;100.00
59513;BME280;45330;51.634;5.562;2022-08-21T00:43:31;101613.47;;;13.76;100.00
59513;BME280;45330;51.634;5.562;2022-08-21T00:45:59;101629.97;;;13.85;100.00
59513;BME280;45330;51.634;5.562;2022-08-21T00:48:25;101627.38;;;13.84;100.00
59513;BME280;45330;51.634;5.562;2022-08-21T00:50:56;101605.66;;;13.68;100.00
59513;BME280;45330;51.634;5.562;2022-08-21T00:53:23;101625.63;;;13.78;100.00
59513;BME280;45330;51.634;5.562;2022-08-21T00:55:49;101630.00;;;13.78;100.00
59513;BME280;45330;51.634;5.562;2022-08-21T00:58:15;101619.59;;;13.70;100.00
59513;BME280;45330;51.634;5.562;2022-08-21T01:00:43;101611.75;;;13.65;100.00
59513;BME280;45330;51.634;5.562;2022-08-21T01:03:13;101637.00;;;13.72;100.00
59513;BME280;45330;51.634;5.562;2022-08-21T01:05:39;101629.16;;;13.71;100.00
59513;BME280;45330;51.634;5.562;2022-08-21T01:08:06;101634.41;;;13.68;100.00
59513;BME280;45330;51.634;5.562;2022-08-21T01:10:32;101631.81;;;13.66;100.00
59513;BME280;45330;51.634;5.562;2022-08-21T01:12:59;101631.84;;;13.65;100.00
59513;BME280;45330;51.634;5.562;2022-08-21T01:15:27;101613.66;;;13.43;100.00
59513;BME280;45330;51.634;5.562;2022-08-21T01:17:55;101628.44;;;13.49;100.00
59513;BME280;45330;51.634;5.562;2022-08-21T01:20:21;101631.91;;;13.49;100.00
59513;BME280;45330;51.634;5.562;2022-08-21T01:22:46;101629.34;;;13.45;100.00
59513;BME280;45330;51.634;5.562;2022-08-21T01:25:14;101615.44;;;13.32;100.00
59513;BME280;45330;51.634;5.562;2022-08-21T01:27:40;101623.28;;;13.35;100.00
59513;BME280;45330;51.634;5.562;2022-08-21T01:30:13;101629.38;;;13.37;100.00
59513;BME280;45330;51.634;5.562;2022-08-21T01:32:39;101634.59;;;13.37;100.00
59513;BME280;45330;51.634;5.562;2022-08-21T01:35:06;101608.50;;;13.21;100.00
59513;BME280;45330;51.634;5.562;2022-08-21T01:37:32;101605.91;;;13.17;100.00
59513;BME280;45330;51.634;5.562;2022-08-21T01:39:58;101610.25;;;13.19;100.00
59513;BME280;45330;51.634;5.562;2022-08-21T01:42:23;101627.66;;;13.27;100.00
59513;BME280;45330;51.634;5.562;2022-08-21T01:44:49;101613.75;;;13.15;100.00
59513;BME280;45330;51.634;5.562;2022-08-21T01:47:14;101630.28;;;13.24;100.00
59513;BME280;45330;51.634;5.562;2022-08-21T01:49:41;101630.28;;;13.22;100.00
59513;BME280;45330;51.634;5.562;2022-08-21T01:52:07;101632.91;;;13.19;100.00
59513;BME280;45330;51.634;5.562;2022-08-21T01:54:33;101611.19;;;13.06;100.00
59513;BME280;45330;51.634;5.562;2022-08-21T01:56:59;101600.75;;;13.00;100.00
59513;BME280;45330;51.634;5.562;2022-08-21T01:59:26;101602.50;;;12.96;100.00
59513;BME280;45330;51.634;5.562;2022-08-21T02:01:52;101604.22;;;13.00;100.00
59513;BME280;45330;51.634;5.562;2022-08-21T02:04:19;101618.16;;;13.07;100.00
59513;BME280;45330;51.634;5.562;2022-08-21T02:06:44;101587.72;;;12.91;100.00
59513;BME280;45330;51.634;5.562;2022-08-21T02:09:11;101616.41;;;13.06;100.00
59513;BME280;45330;51.634;5.562;2022-08-21T02:11:36;101615.53;;;13.06;100.00
59513;BME280;45330;51.634;5.562;2022-08-21T02:14:14;101614.66;;;13.05;100.00
59513;BME280;45330;51.634;5.562;2022-08-21T02:16:41;101610.34;;;13.02;100.00
59513;BME280;45330;51.634;5.562;2022-08-21T02:19:07;101586.00;;;12.86;100.00
59513;BME280;45330;51.634;5.562;2022-08-21T02:21:33;101589.50;;;12.87;100.00
59513;BME280;45330;51.634;5.562;2022-08-21T02:23:58;101600.78;;;12.95;100.00
59513;BME280;45330;51.634;5.562;2022-08-21T02:26:24;101601.69;;;12.91;100.00
59513;BME280;45330;51.634;5.562;2022-08-21T02:28:49;101602.56;;;12.85;100.00
59513;BME280;45330;51.634;5.562;2022-08-21T02:31:15;101599.09;;;12.79;100.00
59513;BME280;45330;51.634;5.562;2022-08-21T02:33:40;101593.88;;;12.77;100.00
59513;BME280;45330;51.634;5.562;2022-08-21T02:36:07;101588.66;;;12.69;100.00
59513;BME280;45330;51.634;5.562;2022-08-21T02:38:35;101601.72;;;12.73;100.00
59513;BME280;45330;51.634;5.562;2022-08-21T02:41:05;101598.25;;;12.69;100.00
59513;BME280;45330;51.634;5.562;2022-08-21T02:43:31;101573.03;;;12.56;100.00
59513;BME280;45330;51.634;5.562;2022-08-21T02:45:57;101578.25;;;12.56;100.00
59513;BME280;45330;51.634;5.562;2022-08-21T02:48:26;101580.00;;;12.57;100.00
59513;BME280;45330;51.634;5.562;2022-08-21T02:50:54;101566.09;;;12.47;100.00
59513;BME280;45330;51.634;5.562;2022-08-21T02:53:20;101583.50;;;12.59;100.00
59513;BME280;45330;51.634;5.562;2022-08-21T02:55:49;101570.47;;;12.46;100.00
59513;BME280;45330;51.634;5.562;2022-08-21T02:58:22;101582.63;;;12.55;100.00
59513;BME280;45330;51.634;5.562;2022-08-21T03:00:48;101565.25;;;12.43;100.00
59513;BME280;45330;51.634;5.562;2022-08-21T03:03:13;101590.47;;;12.53;100.00
59513;BME280;45330;51.634;5.562;2022-08-21T03:05:40;101565.25;;;12.37;100.00
59513;BME280;45330;51.634;5.562;2022-08-21T03:08:08;101586.09;;;12.51;100.00
59513;BME280;45330;51.634;5.562;2022-08-21T03:10:40;101578.28;;;12.49;100.00
59513;BME280;45330;51.634;5.562;2022-08-21T03:13:07;101579.16;;;12.47;100.00
59513;BME280;45330;51.634;5.562;2022-08-21T03:15:33;101556.56;;;12.29;100.00
59513;BME280;45330;51.634;5.562;2022-08-21T03:17:58;101588.72;;;12.42;100.00
59513;BME280;45330;51.634;5.562;2022-08-21T03:20:27;101587.00;;;12.42;100.00
59513;BME280;45330;51.634;5.562;2022-08-21T03:22:53;101571.34;;;12.30;100.00
59513;BME280;45330;51.634;5.562;2022-08-21T03:25:20;101587.03;;;12.38;100.00
59513;BME280;45330;51.634;5.562;2022-08-21T03:27:46;101561.78;;;12.26;100.00
59513;BME280;45330;51.634;5.562;2022-08-21T03:30:14;101559.19;;;12.24;100.00
59513;BME280;45330;51.634;5.562;2022-08-21T03:32:40;101578.31;;;12.34;100.00
59513;BME280;45330;51.634;5.562;2022-08-21T03:35:07;101534.00;;;12.03;100.00
59513;BME280;45330;51.634;5.562;2022-08-21T03:37:33;101556.59;;;12.13;100.00
59513;BME280;45330;51.634;5.562;2022-08-21T03:39:59;101551.38;;;12.09;100.00
59513;BME280;45330;51.634;5.562;2022-08-21T03:42:24;101580.94;;;12.22;100.00
59513;BME280;45330;51.634;5.562;2022-08-21T03:44:50;101556.59;;;12.09;100.00
59513;BME280;45330;51.634;5.562;2022-08-21T03:47:15;101573.13;;;12.18;100.00
59513;BME280;45330;51.634;5.562;2022-08-21T03:49:41;101559.22;;;12.04;100.00
59513;BME280;45330;51.634;5.562;2022-08-21T03:52:06;101553.13;;;11.96;100.00
59513;BME280;45330;51.634;5.562;2022-08-21T03:54:32;101548.78;;;11.95;100.00
59513;BME280;45330;51.634;5.562;2022-08-21T03:56:57;101565.31;;;11.97;100.00
59513;BME280;45330;51.634;5.562;2022-08-21T03:59:23;101568.78;;;11.99;100.00
59513;BME280;45330;51.634;5.562;2022-08-21T04:01:58;101555.72;;;11.91;100.00
59513;BME280;45330;51.634;5.562;2022-08-21T04:04:26;101544.41;;;11.78;100.00
59513;BME280;45330;51.634;5.562;2022-08-21T04:06:52;101571.34;;;11.90;100.00
59513;BME280;45330;51.634;5.562;2022-08-21T04:09:18;101573.97;;;11.93;100.00
59513;BME280;45330;51.634;5.562;2022-08-21T04:11:44;101576.56;;;11.88;100.00
59513;BME280;45330;51.634;5.562;2022-08-21T04:14:11;101572.25;;;11.86;100.00
59513;BME280;45330;51.634;5.562;2022-08-21T04:16:37;101558.31;;;11.70;100.00
59513;BME280;45330;51.634;5.562;2022-08-21T04:19:03;101547.88;;;11.62;100.00
59513;BME280;45330;51.634;5.562;2022-08-21T04:21:28;101547.88;;;11.63;100.00
59513;BME280;45330;51.634;5.562;2022-08-21T04:23:54;101574.81;;;11.75;100.00
59513;BME280;45330;51.634;5.562;2022-08-21T04:26:21;101576.56;;;11.77;100.00
59513;BME280;45330;51.634;5.562;2022-08-21T04:28:46;101556.56;;;11.64;100.00
59513;BME280;45330;51.634;5.562;2022-08-21T04:31:12;101548.75;;;11.61;100.00
59513;BME280;45330;51.634;5.562;2022-08-21T04:33:37;101582.66;;;11.75;100.00
59513;BME280;45330;51.634;5.562;2022-08-21T04:36:03;101592.19;;;11.74;100.00
59513;BME280;45330;51.634;5.562;2022-08-21T04:38:29;101596.53;;;11.74;100.00
59513;BME280;45330;51.634;5.562;2022-08-21T04:40:56;101579.16;;;11.66;100.00
59513;BME280;45330;51.634;5.562;2022-08-21T04:43:21;101606.13;;;11.73;100.00
59513;BME280;45330;51.634;5.562;2022-08-21T04:45:49;101579.16;;;11.65;100.00
59513;BME280;45330;51.634;5.562;2022-08-21T04:48:18;101595.69;;;11.75;100.00
59513;BME280;45330;51.634;5.562;2022-08-21T04:53:49;101580.03;;;11.72;100.00
59513;BME280;45330;51.634;5.562;2022-08-21T04:56:19;101590.47;;;11.84;100.00
59513;BME280;45330;51.634;5.562;2022-08-21T04:58:45;101593.09;;;11.87;100.00
59513;BME280;45330;51.634;5.562;2022-08-21T05:01:17;101570.47;;;11.78;100.00
59513;BME280;45330;51.634;5.562;2022-08-21T05:03:44;101579.16;;;11.83;100.00
59513;BME280;45330;51.634;5.562;2022-08-21T05:06:12;101590.53;;;12.01;100.00
59513;BME280;45330;51.634;5.562;2022-08-21T05:08:40;101600.03;;;12.36;100.00
59513;BME280;45330;51.634;5.562;2022-08-21T05:11:06;101589.59;;;12.34;100.00
59513;BME280;45330;51.634;5.562;2022-08-21T05:13:32;101587.88;;;12.41;100.00
59513;BME280;45330;51.634;5.562;2022-08-21T05:15:57;101598.31;;;12.49;100.00
59513;BME280;45330;51.634;5.562;2022-08-21T05:18:24;101605.25;;;12.56;100.00
59513;BME280;45330;51.634;5.562;2022-08-21T05:20:49;101607.66;;;13.16;100.00
59513;BME280;45330;51.634;5.562;2022-08-21T05:23:15;101601.75;;;14.21;100.00
59513;BME280;45330;51.634;5.562;2022-08-21T05:25:41;101593.66;;;15.22;100.00
59513;BME280;45330;51.634;5.562;2022-08-21T05:28:08;101608.00;;;16.65;99.87
59513;BME280;45330;51.634;5.562;2022-08-21T05:30:34;101604.25;;;17.61;91.53
59513;BME280;45330;51.634;5.562;2022-08-21T05:33:01;101609.97;;;18.16;83.88
59513;BME280;45330;51.634;5.562;2022-08-21T05:35:28;101596.00;;;18.79;81.29
59513;BME280;45330;51.634;5.562;2022-08-21T05:37:55;101590.31;;;19.24;76.43
59513;BME280;45330;51.634;5.562;2022-08-21T05:40:21;101619.09;;;19.90;73.87
59513;BME280;45330;51.634;5.562;2022-08-21T05:42:46;101602.84;;;20.28;71.00
59513;BME280;45330;51.634;5.562;2022-08-21T05:45:12;101612.56;;;20.78;69.20
59513;BME280;45330;51.634;5.562;2022-08-21T05:47:37;101616.84;;;21.05;66.89
59513;BME280;45330;51.634;5.562;2022-08-21T05:50:03;101623.09;;;21.72;64.57
59513;BME280;45330;51.634;5.562;2022-08-21T05:52:29;101612.97;;;22.25;61.42
59513;BME280;45330;51.634;5.562;2022-08-21T05:54:54;101622.97;;;22.99;59.28
59513;BME280;45330;51.634;5.562;2022-08-21T05:57:20;101612.47;;;23.72;56.37
59513;BME280;45330;51.634;5.562;2022-08-21T05:59:46;101622.53;;;24.37;54.02
59513;BME280;45330;51.634;5.562;2022-08-21T06:02:12;101626.81;;;24.91;52.56
59513;BME280;45330;51.634;5.562;2022-08-21T06:04:38;101626.53;;;24.79;52.00
59513;BME280;45330;51.634;5.562;2022-08-21T06:07:05;101623.31;;;24.39;51.32
59513;BME280;45330;51.634;5.562;2022-08-21T06:09:30;101626.25;;;23.80;53.22
59513;BME280;45330;51.634;5.562;2022-08-21T06:11:56;101623.00;;;23.56;54.57
59513;BME280;45330;51.634;5.562;2022-08-21T06:14:21;101634.13;;;23.64;54.29
59513;BME280;45330;51.634;5.562;2022-08-21T06:16:46;101624.91;;;23.53;54.48
59513;BME280;45330;51.634;5.562;2022-08-21T06:19:12;101616.13;;;23.33;54.79
59513;BME280;45330;51.634;5.562;2022-08-21T06:21:37;101626.13;;;23.28;55.02
59513;BME280;45330;51.634;5.562;2022-08-21T06:24:03;101631.44;;;21.84;59.18
59513;BME280;45330;51.634;5.562;2022-08-21T06:26:29;101605.00;;;20.16;65.47
59513;BME280;45330;51.634;5.562;2022-08-21T06:28:56;101628.81;;;19.01;71.00
59513;BME280;45330;51.634;5.562;2022-08-21T06:31:24;101629.38;;;18.12;75.64
59513;BME280;45330;51.634;5.562;2022-08-21T06:33:50;101629.00;;;17.54;79.79
59513;BME280;45330;51.634;5.562;2022-08-21T06:36:15;101609.88;;;17.05;82.38
59513;BME280;45330;51.634;5.562;2022-08-21T06:38:41;101606.75;;;16.85;85.67
59513;BME280;45330;51.634;5.562;2022-08-21T06:41:07;101627.00;;;16.81;86.85
59513;BME280;45330;51.634;5.562;2022-08-21T06:43:32;101611.69;;;16.56;88.09
59513;BME280;45330;51.634;5.562;2022-08-21T06:45:57;101609.25;;;16.47;89.41
59513;BME280;45330;51.634;5.562;2022-08-21T06:48:23;101605.06;;;16.35;90.92
59513;BME280;45330;51.634;5.562;2022-08-21T06:50:49;101621.53;;;16.43;91.58
59513;BME280;45330;51.634;5.562;2022-08-21T06:53:18;101622.41;;;16.44;92.09
59513;BME280;45330;51.634;5.562;2022-08-21T06:55:44;101627.47;;;16.55;93.46
59513;BME280;45330;51.634;5.562;2022-08-21T06:58:11;101606.66;;;16.44;92.34
59513;BME280;45330;51.634;5.562;2022-08-21T07:00:41;101627.50;;;16.53;92.76
59513;BME280;45330;51.634;5.562;2022-08-21T07:03:07;101608.47;;;16.40;93.37
59513;BME280;45330;51.634;5.562;2022-08-21T07:05:32;101606.69;;;16.41;93.72
59513;BME280;45330;51.634;5.562;2022-08-21T07:07:58;101625.72;;;16.55;94.08
59513;BME280;45330;51.634;5.562;2022-08-21T07:10:25;101627.34;;;16.62;94.89
59513;BME280;45330;51.634;5.562;2022-08-21T07:12:51;101612.50;;;16.60;94.79
59513;BME280;45330;51.634;5.562;2022-08-21T07:15:19;101621.19;;;16.62;94.28
59513;BME280;45330;51.634;5.562;2022-08-21T07:17:44;101621.13;;;16.67;95.80
59513;BME280;45330;51.634;5.562;2022-08-21T07:20:10;101591.34;;;16.66;95.53
59513;BME280;45330;51.634;5.562;2022-08-21T07:22:37;101620.63;;;16.93;95.48
59513;BME280;45330;51.634;5.562;2022-08-21T07:25:04;101617.84;;;17.02;94.42
59513;BME280;45330;51.634;5.562;2022-08-21T07:27:30;101599.41;;;17.04;93.84
59513;BME280;45330;51.634;5.562;2022-08-21T07:29:56;101608.59;;;17.25;94.25
59513;BME280;45330;51.634;5.562;2022-08-21T07:32:22;101619.59;;;17.42;96.09
59513;BME280;45330;51.634;5.562;2022-08-21T07:34:47;101593.28;;;17.42;93.86
59513;BME280;45330;51.634;5.562;2022-08-21T07:37:13;101617.31;;;17.66;93.60
59513;BME280;45330;51.634;5.562;2022-08-21T07:39:38;101619.00;;;17.69;93.43
59513;BME280;45330;51.634;5.562;2022-08-21T07:42:04;101600.13;;;17.51;93.28
59513;BME280;45330;51.634;5.562;2022-08-21T07:44:29;101619.94;;;17.66;94.32
59513;BME280;45330;51.634;5.562;2022-08-21T07:46:54;101599.13;;;17.57;93.58
59513;BME280;45330;51.634;5.562;2022-08-21T07:49:20;101622.41;;;17.74;93.21
59513;BME280;45330;51.634;5.562;2022-08-21T07:51:45;101614.44;;;17.77;92.81
59513;BME280;45330;51.634;5.562;2022-08-21T07:54:11;101614.44;;;17.77;93.37
59513;BME280;45330;51.634;5.562;2022-08-21T07:56:37;101604.75;;;17.77;94.48
59513;BME280;45330;51.634;5.562;2022-08-21T07:59:02;101599.50;;;17.77;93.43
59513;BME280;45330;51.634;5.562;2022-08-21T08:01:28;101600.13;;;17.87;92.10
59513;BME280;45330;51.634;5.562;2022-08-21T08:03:54;101609.59;;;17.96;92.67
59513;BME280;45330;51.634;5.562;2022-08-21T08:06:20;101618.13;;;18.07;92.12
59513;BME280;45330;51.634;5.562;2022-08-21T08:08:45;101600.28;;;18.17;93.35
59513;BME280;45330;51.634;5.562;2022-08-21T08:11:11;101614.88;;;18.30;91.66
59513;BME280;45330;51.634;5.562;2022-08-21T08:13:42;101607.00;;;18.30;91.05
59513;BME280;45330;51.634;5.562;2022-08-21T08:16:08;101609.44;;;18.37;90.89
59513;BME280;45330;51.634;5.562;2022-08-21T08:18:34;101616.31;;;18.44;90.81
59513;BME280;45330;51.634;5.562;2022-08-21T08:21:00;101621.44;;;18.48;90.40
59513;BME280;45330;51.634;5.562;2022-08-21T08:23:25;101614.31;;;18.52;90.05
59513;BME280;45330;51.634;5.562;2022-08-21T08:25:52;101620.25;;;18.60;89.62
59513;BME280;45330;51.634;5.562;2022-08-21T08:28:18;101603.81;;;18.50;89.44
59513;BME280;45330;51.634;5.562;2022-08-21T08:30:46;101600.22;;;18.53;89.24
59513;BME280;45330;51.634;5.562;2022-08-21T08:33:12;101600.97;;;18.58;89.21
59513;BME280;45330;51.634;5.562;2022-08-21T08:35:37;101591.00;;;18.69;90.43
59513;BME280;45330;51.634;5.562;2022-08-21T08:38:03;101588.09;;;18.79;88.71
59513;BME280;45330;51.634;5.562;2022-08-21T08:40:40;101593.16;;;18.86;88.81
59513;BME280;45330;51.634;5.562;2022-08-21T08:43:09;101606.94;;;18.98;87.80
59513;BME280;45330;51.634;5.562;2022-08-21T08:45:37;101611.16;;;19.03;87.58
59513;BME280;45330;51.634;5.562;2022-08-21T08:48:06;101603.16;;;19.07;86.91
59513;BME280;45330;51.634;5.562;2022-08-21T08:53:28;101598.41;;;19.18;86.18
59513;BME280;45330;51.634;5.562;2022-08-21T08:55:56;101590.53;;;19.16;85.04
59513;BME280;45330;51.634;5.562;2022-08-21T08:58:31;101579.03;;;19.19;86.55
59513;BME280;45330;51.634;5.562;2022-08-21T09:00:57;101587.91;;;19.45;85.82
59513;BME280;45330;51.634;5.562;2022-08-21T09:03:23;101584.31;;;19.47;83.81
59513;BME280;45330;51.634;5.562;2022-08-21T09:16:13;101552.66;;;19.74;81.55
59513;BME280;45330;51.634;5.562;2022-08-21T09:29:30;101585.22;;;20.28;77.45
59513;BME280;45330;51.634;5.562;2022-08-21T09:31:57;101569.03;;;20.37;76.09
59513;BME280;45330;51.634;5.562;2022-08-21T09:34:28;101560.34;;;20.34;76.70
59513;BME280;45330;51.634;5.562;2022-08-21T09:36:54;101570.25;;;20.52;76.63
59513;BME280;45330;51.634;5.562;2022-08-21T09:39:30;101575.88;;;20.68;77.25
59513;BME280;45330;51.634;5.562;2022-08-21T09:41:59;101575.81;;;20.70;74.51
59513;BME280;45330;51.634;5.562;2022-08-21T09:44:28;101558.78;;;20.77;75.04
59513;BME280;45330;51.634;5.562;2022-08-21T09:46:54;101581.22;;;20.90;74.55
59513;BME280;45330;51.634;5.562;2022-08-21T09:49:33;101589.00;;;20.95;74.89
59513;BME280;45330;51.634;5.562;2022-08-21T09:51:59;101568.28;;;20.83;71.87
59513;BME280;45330;51.634;5.562;2022-08-21T09:54:30;101582.66;;;20.99;72.17
59513;BME280;45330;51.634;5.562;2022-08-21T09:57:21;101567.94;;;20.92;70.30
59513;BME280;45330;51.634;5.562;2022-08-21T10:02:46;101570.56;;;21.16;69.41
59513;BME280;45330;51.634;5.562;2022-08-21T10:07:42;101576.16;;;21.54;68.76
59513;BME280;45330;51.634;5.562;2022-08-21T10:10:15;101576.94;;;21.78;67.64
59513;BME280;45330;51.634;5.562;2022-08-21T10:24:09;101580.66;;;21.95;62.40
59513;BME280;45330;51.634;5.562;2022-08-21T10:32:55;101583.28;;;22.37;62.87
59513;BME280;45330;51.634;5.562;2022-08-21T10:40:22;101580.84;;;22.72;62.16
59513;BME280;45330;51.634;5.562;2022-08-21T10:45:38;101544.22;;;22.61;61.37
59513;BME280;45330;51.634;5.562;2022-08-21T10:48:11;101552.22;;;22.60;60.32
59513;BME280;45330;51.634;5.562;2022-08-21T10:50:51;101553.16;;;22.59;60.25
59513;BME280;45330;51.634;5.562;2022-08-21T10:56:23;101538.06;;;22.20;58.93
59513;BME280;45330;51.634;5.562;2022-08-21T11:04:31;101553.56;;;22.29;60.12
59513;BME280;45330;51.634;5.562;2022-08-21T11:07:25;101539.59;;;22.25;60.41
59513;BME280;45330;51.634;5.562;2022-08-21T11:09:54;101549.81;;;22.35;59.22
59513;BME280;45330;51.634;5.562;2022-08-21T11:12:41;101558.66;;;22.54;60.71
59513;BME280;45330;51.634;5.562;2022-08-21T11:18:04;101561.13;;;22.59;59.11
59513;BME280;45330;51.634;5.562;2022-08-21T11:20:39;101565.47;;;22.60;60.04
59513;BME280;45330;51.634;5.562;2022-08-21T11:23:26;101547.50;;;22.48;60.65
59513;BME280;45330;51.634;5.562;2022-08-21T11:26:01;101543.31;;;22.42;60.57
59513;BME280;45330;51.634;5.562;2022-08-21T11:28:33;101564.84;;;22.55;60.36
59513;BME280;45330;51.634;5.562;2022-08-21T11:36:27;101551.22;;;22.63;58.74
59513;BME280;45330;51.634;5.562;2022-08-21T11:42:02;101553.34;;;22.94;57.56
59513;BME280;45330;51.634;5.562;2022-08-21T11:44:48;101537.25;;;22.97;57.10
59513;BME280;45330;51.634;5.562;2022-08-21T11:50:31;101517.06;;;23.31;54.93
59513;BME280;45330;51.634;5.562;2022-08-21T11:53:03;101552.19;;;23.55;54.49
59513;BME280;45330;51.634;5.562;2022-08-21T11:55:43;101545.63;;;23.45;55.46
59513;BME280;45330;51.634;5.562;2022-08-21T12:00:59;101554.31;;;23.84;53.02
59513;BME280;45330;51.634;5.562;2022-08-21T12:03:30;101568.75;;;23.97;53.37
59513;BME280;45330;51.634;5.562;2022-08-21T12:06:05;101573.50;;;23.90;53.25
59513;BME280;45330;51.634;5.562;2022-08-21T12:09:05;101580.03;;;23.83;53.27
59513;BME280;45330;51.634;5.562;2022-08-21T12:11:31;101557.97;;;23.46;48.98
59513;BME280;45330;51.634;5.562;2022-08-21T12:16:36;101574.09;;;23.24;53.02
59513;BME280;45330;51.634;5.562;2022-08-21T12:26:58;101573.16;;;23.25;53.43
59513;BME280;45330;51.634;5.562;2022-08-21T12:29:30;101554.97;;;22.96;53.99
59513;BME280;45330;51.634;5.562;2022-08-21T12:32:03;101564.38;;;22.85;55.10
59513;BME280;45330;51.634;5.562;2022-08-21T12:34:35;101567.00;;;22.66;55.09
59513;BME280;45330;51.634;5.562;2022-08-21T12:37:11;101554.75;;;22.63;55.71
59513;BME280;45330;51.634;5.562;2022-08-21T12:39:43;101555.91;;;22.76;55.93
59513;BME280;45330;51.634;5.562;2022-08-21T12:42:22;101547.22;;;22.92;55.18
59513;BME280;45330;51.634;5.562;2022-08-21T12:44:53;101566.63;;;23.13;54.23
59513;BME280;45330;51.634;5.562;2022-08-21T12:47:36;101572.03;;;23.10;54.95
59513;BME280;45330;51.634;5.562;2022-08-21T12:50:15;101564.88;;;22.93;53.15
59513;BME280;45330;51.634;5.562;2022-08-21T12:53:04;101543.88;;;22.88;53.96
59513;BME280;45330;51.634;5.562;2022-08-21T12:55:32;101570.25;;;23.10;53.07
59513;BME280;45330;51.634;5.562;2022-08-21T12:57:59;101553.69;;;23.24;51.50
59513;BME280;45330;51.634;5.562;2022-08-21T13:00:26;101562.31;;;23.47;49.26
59513;BME280;45330;51.634;5.562;2022-08-21T13:02:53;101560.31;;;23.70;49.87
59513;BME280;45330;51.634;5.562;2022-08-21T13:05:33;101547.66;;;23.94;52.75
59513;BME280;45330;51.634;5.562;2022-08-21T13:08:03;101557.94;;;24.18;46.87
59513;BME280;45330;51.634;5.562;2022-08-21T13:10:31;101544.16;;;24.27;46.86
59513;BME280;45330;51.634;5.562;2022-08-21T13:12:59;101525.28;;;24.31;46.10
59513;BME280;45330;51.634;5.562;2022-08-21T13:15:29;101552.53;;;24.70;45.85
59513;BME280;45330;51.634;5.562;2022-08-21T13:17:55;101562.44;;;25.00;45.18
59513;BME280;45330;51.634;5.562;2022-08-21T13:20:29;101543.28;;;24.93;44.75
59513;BME280;45330;51.634;5.562;2022-08-21T13:22:56;101559.19;;;25.11;43.77
59513;BME280;45330;51.634;5.562;2022-08-21T13:25:27;101572.22;;;25.31;44.28
59513;BME280;45330;51.634;5.562;2022-08-21T13:28:09;101543.97;;;25.29;43.39
59513;BME280;45330;51.634;5.562;2022-08-21T13:30:43;101560.38;;;25.37;41.60
59513;BME280;45330;51.634;5.562;2022-08-21T13:33:10;101550.75;;;25.50;39.78
59513;BME280;45330;51.634;5.562;2022-08-21T13:38:28;101541.72;;;25.37;41.78
59513;BME280;45330;51.634;5.562;2022-08-21T13:41:03;101536.72;;;25.31;43.35
59513;BME280;45330;51.634;5.562;2022-08-21T13:43:34;101567.41;;;25.22;43.58
59513;BME280;45330;51.634;5.562;2022-08-21T13:46:01;101550.84;;;25.01;43.65
59513;BME280;45330;51.634;5.562;2022-08-21T13:48:30;101564.47;;;24.95;45.28
59513;BME280;45330;51.634;5.562;2022-08-21T13:50:58;101551.75;;;24.68;44.42
59513;BME280;45330;51.634;5.562;2022-08-21T13:55:51;101539.53;;;24.64;45.52
59513;BME280;45330;51.634;5.562;2022-08-21T13:58:45;101564.56;;;24.93;46.90
59513;BME280;45330;51.634;5.562;2022-08-21T14:01:23;101536.25;;;24.92;44.20
59513;BME280;45330;51.634;5.562;2022-08-21T14:03:50;101521.22;;;24.75;45.03
59513;BME280;45330;51.634;5.562;2022-08-21T14:06:20;101531.28;;;25.02;43.86
59513;BME280;45330;51.634;5.562;2022-08-21T14:08:50;101538.69;;;25.27;43.64
59513;BME280;45330;51.634;5.562;2022-08-21T14:11:16;101547.03;;;25.53;43.49
59513;BME280;45330;51.634;5.562;2022-08-21T14:18:51;101542.50;;;26.00;41.46
59513;BME280;45330;51.634;5.562;2022-08-21T14:21:28;101537.78;;;26.05;42.24
59513;BME280;45330;51.634;5.562;2022-08-21T14:24:14;101535.63;;;25.96;41.93
59513;BME280;45330;51.634;5.562;2022-08-21T14:26:56;101543.91;;;25.77;41.96
59513;BME280;45330;51.634;5.562;2022-08-21T14:29:28;101515.09;;;25.67;41.55
59513;BME280;45330;51.634;5.562;2022-08-21T14:31:59;101533.25;;;25.61;39.89
59513;BME280;45330;51.634;5.562;2022-08-21T14:34:27;101537.22;;;25.54;41.30
59513;BME280;45330;51.634;5.562;2022-08-21T14:36:55;101531.69;;;25.26;41.90